createdAt,value
2022-12-31T00:00:10.426Z,98875.94
2022-12-31T00:03:35.735Z,98886.66
2022-12-31T00:06:41.172Z,98876.75
2022-12-31T00:09:44.774Z,98893.03
2022-12-31T00:12:48.701Z,98881.09
2022-12-31T00:15:52.713Z,98883.72
2022-12-31T00:19:00.240Z,98889.19
2022-12-31T00:22:05.768Z,98897.69
2022-12-31T00:25:11.190Z,98888.28
2022-12-31T00:28:14.736Z,98899.06
2022-12-31T00:31:21.542Z,98895.28
2022-12-31T00:34:29.403Z,98905.72
2022-12-31T00:37:34.903Z,98912.03
2022-12-31T00:40:40.314Z,98906.94
2022-12-31T00:43:45.289Z,98915.41
2022-12-31T00:46:50.693Z,98914.72
2022-12-31T00:49:56.937Z,98916.44
2022-12-31T00:53:02.273Z,98924.91
2022-12-31T00:56:12.962Z,98931.91
2022-12-31T00:59:19.447Z,98924.38
2022-12-31T01:02:24.551Z,98935.56
2022-12-31T01:05:28.244Z,98933.44
2022-12-31T01:08:35.963Z,98942.47
2022-12-31T01:11:59.494Z,98948.78
2022-12-31T01:15:04.591Z,98944.47
2022-12-31T01:18:09.692Z,98941.69
2022-12-31T01:21:15.832Z,98943.47
2022-12-31T01:24:22.399Z,98949.16
2022-12-31T01:27:26.453Z,98945.59
2022-12-31T01:30:35.131Z,98951.84
2022-12-31T01:33:43.696Z,98946.44
2022-12-31T01:36:48.001Z,98947.91
2022-12-31T01:39:55.496Z,98949.81
2022-12-31T01:43:00.142Z,98941.09
2022-12-31T01:46:08.750Z,98948.38
2022-12-31T01:49:18.473Z,98942.41
2022-12-31T01:52:27.228Z,98937.75
2022-12-31T01:55:39.676Z,98937.75
2022-12-31T01:58:50.898Z,98928.94
2022-12-31T02:01:56.157Z,98925.06
2022-12-31T02:05:04.324Z,98939.72
2022-12-31T02:08:08.234Z,98933.13
2022-12-31T02:11:27.700Z,98935.91
2022-12-31T02:14:37.171Z,98933.13
2022-12-31T02:17:49.277Z,98944.84
2022-12-31T02:21:16.798Z,98940.25
2022-12-31T02:25:05.360Z,98937.88
2022-12-31T02:28:28.906Z,98936.84
2022-12-31T02:31:38.680Z,98934.00
2022-12-31T02:34:49.097Z,98941.53
2022-12-31T02:38:00.235Z,98945.00
2022-12-31T02:41:04.306Z,98946.13
2022-12-31T02:44:23.066Z,98947.34
2022-12-31T02:47:41.582Z,98947.41
2022-12-31T02:50:59.174Z,98948.19
2022-12-31T02:54:21.250Z,98948.69
2022-12-31T02:57:35.701Z,98944.94
2022-12-31T03:01:04.073Z,98940.03
2022-12-31T03:04:25.008Z,98949.06
2022-12-31T03:07:36.420Z,98951.47
2022-12-31T03:10:42.798Z,98949.88
2022-12-31T03:13:45.263Z,98953.78
2022-12-31T03:16:50.672Z,98953.81
2022-12-31T03:20:15.333Z,98954.97
2022-12-31T03:23:26.526Z,98955.22
2022-12-31T03:26:29.180Z,98956.06
2022-12-31T03:29:33.474Z,98963.59
2022-12-31T03:32:37.422Z,98965.13
2022-12-31T03:35:44.432Z,98966.81
2022-12-31T03:38:52.703Z,98969.56
2022-12-31T03:41:56.772Z,98977.41
2022-12-31T03:45:00.558Z,98975.84
2022-12-31T03:48:07.059Z,98983.38
2022-12-31T03:51:13.629Z,98991.19
2022-12-31T03:54:19.199Z,98990.41
2022-12-31T03:57:22.792Z,98995.50
2022-12-31T04:00:27.205Z,98990.78
2022-12-31T04:03:30.667Z,98987.97
2022-12-31T04:06:37.221Z,98993.53
2022-12-31T04:09:41.240Z,99002.63
2022-12-31T04:12:45.882Z,99004.53
2022-12-31T04:15:52.262Z,99010.47
2022-12-31T04:19:01.284Z,99012.06
2022-12-31T04:22:06.845Z,99020.34
2022-12-31T04:25:12.113Z,99016.78
2022-12-31T04:28:16.839Z,99010.94
2022-12-31T04:31:20.805Z,99011.28
2022-12-31T04:34:24.327Z,99014.44
2022-12-31T04:37:31.722Z,99003.78
2022-12-31T04:40:56.453Z,99021.53
2022-12-31T04:44:01.301Z,99019.91
2022-12-31T04:47:05.149Z,99018.00
2022-12-31T04:50:09.540Z,99031.78
2022-12-31T04:53:14.551Z,99035.34
2022-12-31T04:56:18.596Z,99034.94
2022-12-31T04:59:22.118Z,99032.56
2022-12-31T05:02:27.423Z,99031.44
2022-12-31T05:05:31.493Z,99026.66
2022-12-31T05:08:42.253Z,99030.22
2022-12-31T05:11:46.473Z,99025.91
2022-12-31T05:14:52.082Z,99041.22
2022-12-31T05:17:55.791Z,99038.09
2022-12-31T05:21:03.739Z,99038.09
2022-12-31T05:24:09.622Z,99041.59
2022-12-31T05:27:13.741Z,99037.28
2022-12-31T05:30:18.699Z,99049.91
2022-12-31T05:33:23.079Z,99042.03
2022-12-31T05:36:26.761Z,99052.63
2022-12-31T05:39:32.336Z,99062.13
2022-12-31T05:42:36.418Z,99066.03
2022-12-31T05:45:40.922Z,99067.25
2022-12-31T05:48:44.373Z,99064.09
2022-12-31T05:51:49.276Z,99063.28
2022-12-31T05:54:54.565Z,99059.75
2022-12-31T05:57:58.299Z,99063.31
2022-12-31T06:01:04.278Z,99058.59
2022-12-31T06:04:09.387Z,99060.94
2022-12-31T06:07:14.596Z,99064.91
2022-12-31T06:10:20.025Z,99062.50
2022-12-31T06:13:23.619Z,99071.97
2022-12-31T06:16:28.871Z,99079.44
2022-12-31T06:19:32.723Z,99081.03
2022-12-31T06:22:37.184Z,99077.06
2022-12-31T06:25:44.265Z,99072.75
2022-12-31T06:28:51.357Z,99078.28
2022-12-31T06:31:56.886Z,99076.69
2022-12-31T06:35:00.972Z,99082.19
2022-12-31T06:38:05.893Z,99090.88
2022-12-31T06:41:16.109Z,99090.88
2022-12-31T06:44:22.420Z,99097.97
2022-12-31T06:47:29.664Z,99092.06
2022-12-31T06:50:33.339Z,99097.97
2022-12-31T06:53:38.947Z,99102.69
2022-12-31T06:57:03.151Z,99105.06
2022-12-31T07:00:11.355Z,99104.63
2022-12-31T07:03:30.889Z,99107.78
2022-12-31T07:06:45.148Z,99114.50
2022-12-31T07:10:01.032Z,99120.78
2022-12-31T07:13:37.364Z,99125.53
2022-12-31T07:16:57.596Z,99129.84
2022-12-31T07:20:07.186Z,99123.94
2022-12-31T07:23:12.397Z,99133.38
2022-12-31T07:26:28.693Z,99132.13
2022-12-31T07:29:47.700Z,99143.19
2022-12-31T07:33:13.334Z,99142.38
2022-12-31T07:36:33.457Z,99153.00
2022-12-31T07:39:43.479Z,99146.59
2022-12-31T07:43:05.735Z,99154.03
2022-12-31T07:46:18.663Z,99162.28
2022-12-31T07:49:25.100Z,99162.28
2022-12-31T07:52:29.757Z,99157.91
2022-12-31T07:55:35.303Z,99164.53
2022-12-31T07:58:55.795Z,99147.50
2022-12-31T08:02:30.361Z,99157.41
2022-12-31T08:05:47.622Z,99157.31
2022-12-31T08:09:01.964Z,99159.59
2022-12-31T08:12:11.375Z,99166.22
2022-12-31T08:15:16.968Z,99165.78
2022-12-31T08:18:23.460Z,99176.72
2022-12-31T08:21:52.253Z,99179.78
2022-12-31T08:25:12.721Z,99181.53
2022-12-31T08:28:28.404Z,99177.19
2022-12-31T08:31:45.315Z,99181.13
2022-12-31T08:35:01.032Z,99188.50
2022-12-31T08:38:18.907Z,99180.56
2022-12-31T08:41:30.487Z,99189.06
2022-12-31T08:44:41.508Z,99185.13
2022-12-31T08:47:59.886Z,99194.47
2022-12-31T08:51:19.103Z,99197.88
2022-12-31T08:54:23.560Z,99197.34
2022-12-31T08:57:34.768Z,99200.88
2022-12-31T09:00:41.909Z,99213.75
2022-12-31T09:04:05.675Z,99218.78
2022-12-31T09:07:15.430Z,99212.69
2022-12-31T09:10:26.007Z,99211.41
2022-12-31T09:13:39.096Z,99201.72
2022-12-31T09:16:55.646Z,99196.00
2022-12-31T09:20:00.342Z,99193.47
2022-12-31T09:23:07.267Z,99192.97
2022-12-31T09:26:37.128Z,99190.47
2022-12-31T09:29:50.267Z,99186.72
2022-12-31T09:33:02.713Z,99190.84
2022-12-31T09:36:09.380Z,99189.06
2022-12-31T09:39:18.296Z,99188.03
2022-12-31T09:42:49.962Z,99189.28
2022-12-31T09:46:19.220Z,99195.19
2022-12-31T09:49:56.538Z,99191.66
2022-12-31T09:53:21.541Z,99189.94
2022-12-31T09:56:32.973Z,99192.34
2022-12-31T09:59:44.032Z,99195.19
2022-12-31T10:03:08.627Z,99190.94
2022-12-31T10:06:27.155Z,99190.59
2022-12-31T10:09:44.684Z,99194.72
2022-12-31T10:13:11.818Z,99201.16
2022-12-31T10:16:42.737Z,99194.13
2022-12-31T10:20:10.120Z,99180.81
2022-12-31T10:23:28.013Z,99170.09
2022-12-31T10:26:53.873Z,99175.41
2022-12-31T10:30:13.294Z,99175.81
2022-12-31T10:33:26.052Z,99170.75
2022-12-31T10:36:48.734Z,99168.09
2022-12-31T10:40:06.792Z,99169.03
2022-12-31T10:43:44.156Z,99169.97
2022-12-31T10:47:04.018Z,99166.19
2022-12-31T10:50:46.389Z,99168.88
2022-12-31T10:54:17.099Z,99156.91
2022-12-31T10:58:04.291Z,99147.00
2022-12-31T11:01:20.045Z,99137.03
2022-12-31T11:04:58.854Z,99140.16
2022-12-31T11:08:19.411Z,99132.94
2022-12-31T11:11:33.047Z,99136.81
2022-12-31T11:14:52.202Z,99139.63
2022-12-31T11:18:07.209Z,99145.09
2022-12-31T11:21:41.329Z,99147.56
2022-12-31T11:25:07.996Z,99139.09
2022-12-31T11:28:32.254Z,99142.19
2022-12-31T11:32:05.272Z,99133.41
2022-12-31T11:35:23.533Z,99125.47
2022-12-31T11:38:32.092Z,99136.41
2022-12-31T11:41:44.429Z,99134.84
2022-12-31T11:44:55.412Z,99129.06
2022-12-31T11:48:30.295Z,99128.94
2022-12-31T11:51:50.810Z,99107.97
2022-12-31T11:55:13.675Z,99112.09
2022-12-31T11:58:23.348Z,99103.94
2022-12-31T12:01:33.350Z,99106.28
2022-12-31T12:04:38.048Z,99117.34
2022-12-31T12:07:44.300Z,99122.03
2022-12-31T12:11:05.113Z,99115.13
2022-12-31T12:14:21.320Z,99117.91
2022-12-31T12:17:52.802Z,99107.84
2022-12-31T12:21:14.032Z,99120.84
2022-12-31T12:24:31.102Z,99114.34
2022-12-31T12:27:40.911Z,99111.44
2022-12-31T12:30:47.125Z,99115.03
2022-12-31T12:33:57.027Z,99110.53
2022-12-31T12:37:03.673Z,99109.97
2022-12-31T12:40:19.983Z,99114.56
2022-12-31T12:43:28.948Z,99103.72
2022-12-31T12:46:35.840Z,99104.38
2022-12-31T12:49:44.596Z,99105.97
2022-12-31T12:53:15.607Z,99109.63
2022-12-31T12:56:31.826Z,99108.63
2022-12-31T12:59:54.615Z,99108.75
2022-12-31T13:03:48.739Z,99110.97
2022-12-31T13:07:18.185Z,99120.16
2022-12-31T13:10:41.642Z,99115.66
2022-12-31T13:13:54.067Z,99111.53
2022-12-31T13:17:10.183Z,99105.16
2022-12-31T13:20:25.160Z,99113.53
2022-12-31T13:23:39.875Z,99118.31
2022-12-31T13:26:53.927Z,99112.63
2022-12-31T13:30:03.588Z,99114.63
2022-12-31T13:33:17.440Z,99113.88
2022-12-31T13:36:26.316Z,99104.91
2022-12-31T13:39:34.881Z,99101.53
2022-12-31T13:42:50.162Z,99114.50
2022-12-31T13:46:04.785Z,99117.00
2022-12-31T13:49:29.751Z,99114.97
2022-12-31T13:52:37.768Z,99117.00
2022-12-31T13:55:46.307Z,99125.03
2022-12-31T13:58:56.049Z,99125.91
2022-12-31T14:02:11.147Z,99126.84
2022-12-31T14:05:29.727Z,99132.53
2022-12-31T14:08:34.016Z,99142.94
2022-12-31T14:11:54.852Z,99136.69
2022-12-31T14:15:09.796Z,99148.97
2022-12-31T14:18:21.825Z,99147.06
2022-12-31T14:21:34.123Z,99152.78
2022-12-31T14:24:48.742Z,99143.38
2022-12-31T14:28:01.717Z,99133.44
2022-12-31T14:31:24.371Z,99133.22
2022-12-31T14:34:44.607Z,99136.47
2022-12-31T14:37:59.376Z,99140.63
2022-12-31T14:41:22.781Z,99153.47
2022-12-31T14:44:36.956Z,99156.81
2022-12-31T14:47:52.442Z,99157.00
2022-12-31T14:50:56.878Z,99163.16
2022-12-31T14:54:05.887Z,99160.56
2022-12-31T14:57:12.561Z,99163.25
2022-12-31T15:00:33.487Z,99162.88
2022-12-31T15:03:45.908Z,99163.88
2022-12-31T15:06:59.984Z,99165.72
2022-12-31T15:10:18.049Z,99175.97
2022-12-31T15:13:39.339Z,99174.94
2022-12-31T15:16:53.772Z,99182.81
2022-12-31T15:20:37.592Z,99184.44
2022-12-31T15:23:45.742Z,99201.00
2022-12-31T15:26:54.250Z,99200.50
2022-12-31T15:29:59.015Z,99202.78
2022-12-31T15:33:31.668Z,99208.53
2022-12-31T16:01:18.803Z,99227.81
2022-12-31T16:04:26.758Z,99224.59
2022-12-31T16:07:36.841Z,99231.28
2022-12-31T16:10:45.455Z,99239.69
2022-12-31T16:13:52.035Z,99238.34
2022-12-31T16:16:59.595Z,99236.22
2022-12-31T16:20:21.533Z,99255.38
2022-12-31T16:23:27.708Z,99257.66
2022-12-31T16:26:38.399Z,99255.25
2022-12-31T16:29:50.626Z,99257.94
2022-12-31T16:33:02.693Z,99255.97
2022-12-31T16:36:06.962Z,99264.44
2022-12-31T16:39:27.670Z,99275.88
2022-12-31T16:42:31.978Z,99275.94
2022-12-31T16:45:37.170Z,99280.09
2022-12-31T16:48:47.488Z,99286.19
2022-12-31T16:51:51.252Z,99288.13
2022-12-31T16:54:57.066Z,99291.28
2022-12-31T16:58:06.279Z,99294.69
2022-12-31T17:01:19.751Z,99290.84
2022-12-31T17:04:34.670Z,99281.28
2022-12-31T17:07:41.876Z,99283.16
2022-12-31T17:10:48.778Z,99277.81
2022-12-31T17:13:58.798Z,99290.69
2022-12-31T17:17:05.129Z,99277.75
2022-12-31T17:20:24.159Z,99289.63
2022-12-31T17:23:32.727Z,99291.53
2022-12-31T17:26:39.604Z,99289.06
2022-12-31T17:29:51.639Z,99274.66
2022-12-31T17:33:01.553Z,99261.19
2022-12-31T17:36:25.193Z,99265.19
2022-12-31T17:39:43.584Z,99261.94
2022-12-31T17:42:47.716Z,99265.31
2022-12-31T17:45:53.201Z,99264.06
2022-12-31T17:49:01.962Z,99273.53
2022-12-31T17:52:13.348Z,99262.84
2022-12-31T17:55:17.502Z,99273.88
2022-12-31T17:58:29.765Z,99280.25
2022-12-31T18:01:34.346Z,99274.88
2022-12-31T18:04:38.972Z,99267.13
2022-12-31T18:07:44.693Z,99268.63
2022-12-31T18:10:49.973Z,99267.19
2022-12-31T18:13:54.954Z,99269.53
2022-12-31T18:16:59.195Z,99271.34
2022-12-31T18:20:08.351Z,99274.69
2022-12-31T18:23:24.729Z,99272.31
2022-12-31T18:26:28.841Z,99278.34
2022-12-31T18:29:34.143Z,99279.69
2022-12-31T18:32:39.786Z,99276.94
2022-12-31T18:39:10.521Z,99272.19
2022-12-31T18:42:17.064Z,99272.53
2022-12-31T18:45:25.300Z,99272.03
2022-12-31T18:48:29.970Z,99290.19
2022-12-31T18:51:37.874Z,99292.00
2022-12-31T18:54:46.756Z,99291.03
2022-12-31T18:57:51.427Z,99298.00
2022-12-31T19:00:55.807Z,99291.25
2022-12-31T19:04:04.416Z,99297.72
2022-12-31T19:07:09.547Z,99290.53
2022-12-31T19:10:17.198Z,99289.38
2022-12-31T19:13:23.399Z,99288.84
2022-12-31T19:16:30.527Z,99300.53
2022-12-31T19:19:42.894Z,99294.38
2022-12-31T19:22:47.656Z,99302.06
2022-12-31T19:26:02.778Z,99299.75
2022-12-31T19:29:07.574Z,99300.53
2022-12-31T19:32:11.778Z,99298.50
2022-12-31T19:35:17.261Z,99310.84
2022-12-31T19:38:24.161Z,99318.41
2022-12-31T19:41:30.634Z,99317.84
2022-12-31T19:44:35.999Z,99318.28
2022-12-31T19:47:42.063Z,99324.75
2022-12-31T19:50:49.086Z,99326.66
2022-12-31T19:53:54.661Z,99325.13
2022-12-31T19:56:59.772Z,99330.13
2022-12-31T20:00:03.317Z,99314.28
2022-12-31T20:03:18.929Z,99324.16
2022-12-31T20:06:25.697Z,99331.75
2022-12-31T20:09:30.817Z,99336.41
2022-12-31T20:12:44.401Z,99338.28
2022-12-31T20:15:49.300Z,99339.00
2022-12-31T20:18:52.948Z,99338.91
2022-12-31T20:22:02.292Z,99334.59
2022-12-31T20:25:06.644Z,99335.72
2022-12-31T20:28:14.249Z,99327.59
2022-12-31T20:31:23.852Z,99328.25
2022-12-31T20:34:29.343Z,99334.91
2022-12-31T20:37:32.900Z,99341.50
2022-12-31T20:40:41.433Z,99329.69
2022-12-31T20:43:52.190Z,99331.72
2022-12-31T20:46:59.631Z,99338.00
2022-12-31T20:50:13.402Z,99328.16
2022-12-31T20:53:18.201Z,99319.84
2022-12-31T20:56:21.744Z,99316.78
2022-12-31T20:59:29.223Z,99330.31
2022-12-31T21:02:41.429Z,99329.06
2022-12-31T21:05:51.577Z,99319.97
2022-12-31T21:08:56.241Z,99327.06
2022-12-31T21:12:18.956Z,99323.19
2022-12-31T21:15:23.882Z,99316.94
2022-12-31T21:18:27.897Z,99322.44
2022-12-31T21:21:31.695Z,99317.31
2022-12-31T21:24:43.288Z,99320.44
2022-12-31T21:27:46.742Z,99314.59
2022-12-31T21:30:58.402Z,99315.25
2022-12-31T21:34:03.552Z,99315.34
2022-12-31T21:37:08.446Z,99326.03
2022-12-31T21:40:37.633Z,99322.16
2022-12-31T21:43:42.384Z,99327.25
2022-12-31T21:47:24.884Z,99336.75
2022-12-31T21:50:14.927Z,99333.59
2022-12-31T21:53:24.768Z,99328.78
2022-12-31T21:56:29.737Z,99334.31
2022-12-31T21:59:48.953Z,99334.28
2022-12-31T22:03:21.987Z,99326.41
2022-12-31T22:06:26.057Z,99335.56
2022-12-31T22:10:24.066Z,99344.59
2022-12-31T22:13:27.925Z,99347.78
2022-12-31T22:16:32.361Z,99350.53
2022-12-31T22:20:00.938Z,99342.69
2022-12-31T22:23:10.495Z,99347.72
2022-12-31T22:26:20.833Z,99347.72
2022-12-31T22:29:29.229Z,99355.63
2022-12-31T22:32:33.280Z,99356.06
2022-12-31T22:35:42.744Z,99359.69
2022-12-31T22:38:49.139Z,99362.84
2022-12-31T22:41:55.215Z,99364.78
2022-12-31T22:45:02.449Z,99364.34
2022-12-31T22:48:09.930Z,99367.09
2022-12-31T22:51:17.837Z,99364.31
2022-12-31T22:54:21.944Z,99370.63
2022-12-31T22:57:30.993Z,99363.25
2022-12-31T23:00:40.290Z,99362.84
2022-12-31T23:03:50.682Z,99356.50
2022-12-31T23:06:56.390Z,99353.31
2022-12-31T23:10:17.234Z,99365.16
2022-12-31T23:13:39.855Z,99361.25
2022-12-31T23:17:29.854Z,99364.41
2022-12-31T23:20:46.787Z,99363.63
2022-12-31T23:23:56.265Z,99363.25
2022-12-31T23:27:01.801Z,99370.38
2022-12-31T23:30:06.257Z,99354.59
2022-12-31T23:37:56.276Z,99360.13
2022-12-31T23:41:12.984Z,99360.50
2022-12-31T23:44:16.591Z,99360.88
2022-12-31T23:47:26.300Z,99359.72
2022-12-31T23:50:30.309Z,99348.69
2022-12-31T23:53:34.627Z,99357.34
2022-12-31T23:56:42.417Z,99355.00
2022-12-31T23:59:46.747Z,99352.22
